sensor_id;sensor_type;location;lat;lon;timestamp;P1;P2;P0
42950;PMS7003;28592;51.064;17.192;2022-08-19T00:01:53;22;16;8
42950;PMS7003;28592;51.064;17.192;2022-08-19T00:04:43;25;20;11
42950;PMS7003;28592;51.064;17.192;2022-08-19T00:07:32;28;16;10
42950;PMS7003;28592;51.064;17.192;2022-08-19T00:10:18;23;17;7
42950;PMS7003;28592;51.064;17.192;2022-08-19T00:13:04;30;13;7
42950;PMS7003;28592;51.064;17.192;2022-08-19T00:15:50;22;16;12
42950;PMS7003;28592;51.064;17.192;2022-08-19T00:18:36;20;14;6
42950;PMS7003;28592;51.064;17.192;2022-08-19T00:21:21;25;19;10
42950;PMS7003;28592;51.064;17.192;2022-08-19T00:24:08;27;21;13
42950;PMS7003;28592;51.064;17.192;2022-08-19T00:26:55;20;14;11
42950;PMS7003;28592;51.064;17.192;2022-08-19T00:29:41;25;19;12
42950;PMS7003;28592;51.064;17.192;2022-08-19T00:32:26;29;10;6
42950;PMS7003;28592;51.064;17.192;2022-08-19T00:35:11;21;16;9
42950;PMS7003;28592;51.064;17.192;2022-08-19T00:37:57;34;18;9
42950;PMS7003;28592;51.064;17.192;2022-08-19T00:40:43;16;10;6
42950;PMS7003;28592;51.064;17.192;2022-08-19T00:43:30;30;25;10
42950;PMS7003;28592;51.064;17.192;2022-08-19T00:46:16;21;15;7
42950;PMS7003;28592;51.064;17.192;2022-08-19T00:52:09;50;25;10
42950;PMS7003;28592;51.064;17.192;2022-08-19T00:55:03;36;19;12
42950;PMS7003;28592;51.064;17.192;2022-08-19T00:58:00;19;13;9
42950;PMS7003;28592;51.064;17.192;2022-08-19T01:00:53;23;18;8
42950;PMS7003;28592;51.064;17.192;2022-08-19T01:03:39;18;13;6
42950;PMS7003;28592;51.064;17.192;2022-08-19T01:06:25;28;22;8
42950;PMS7003;28592;51.064;17.192;2022-08-19T01:09:10;20;14;7
42950;PMS7003;28592;51.064;17.192;2022-08-19T01:11:56;24;18;10
42950;PMS7003;28592;51.064;17.192;2022-08-19T01:14:41;27;10;7
42950;PMS7003;28592;51.064;17.192;2022-08-19T01:17:27;20;15;8
42950;PMS7003;28592;51.064;17.192;2022-08-19T01:20:13;26;20;9
42950;PMS7003;28592;51.064;17.192;2022-08-19T01:23:02;19;14;10
42950;PMS7003;28592;51.064;17.192;2022-08-19T01:25:48;27;21;12
42950;PMS7003;28592;51.064;17.192;2022-08-19T01:28:36;22;17;8
42950;PMS7003;28592;51.064;17.192;2022-08-19T01:31:22;28;22;10
42950;PMS7003;28592;51.064;17.192;2022-08-19T01:34:10;16;10;6
42950;PMS7003;28592;51.064;17.192;2022-08-19T01:36:55;17;11;5
42950;PMS7003;28592;51.064;17.192;2022-08-19T01:39:41;35;18;8
42950;PMS7003;28592;51.064;17.192;2022-08-19T01:42:27;18;12;9
42950;PMS7003;28592;51.064;17.192;2022-08-19T01:45:17;21;15;6
42950;PMS7003;28592;51.064;17.192;2022-08-19T01:48:03;13;7;5
42950;PMS7003;28592;51.064;17.192;2022-08-19T01:50:50;26;20;12
42950;PMS7003;28592;51.064;17.192;2022-08-19T01:53:35;31;25;12
42950;PMS7003;28592;51.064;17.192;2022-08-19T01:56:21;19;14;8
42950;PMS7003;28592;51.064;17.192;2022-08-19T01:59:12;19;14;8
42950;PMS7003;28592;51.064;17.192;2022-08-19T02:02:00;22;16;11
42950;PMS7003;28592;51.064;17.192;2022-08-19T02:04:46;27;21;9
42950;PMS7003;28592;51.064;17.192;2022-08-19T02:07:32;40;17;8
42950;PMS7003;28592;51.064;17.192;2022-08-19T02:10:19;28;11;7
42950;PMS7003;28592;51.064;17.192;2022-08-19T02:13:05;24;18;9
42950;PMS7003;28592;51.064;17.192;2022-08-19T02:15:51;24;12;10
42950;PMS7003;28592;51.064;17.192;2022-08-19T02:18:36;18;12;7
42950;PMS7003;28592;51.064;17.192;2022-08-19T02:21:22;26;20;9
42950;PMS7003;28592;51.064;17.192;2022-08-19T02:24:08;19;13;8
42950;PMS7003;28592;51.064;17.192;2022-08-19T02:26:54;21;15;9
42950;PMS7003;28592;51.064;17.192;2022-08-19T02:29:42;21;16;12
42950;PMS7003;28592;51.064;17.192;2022-08-19T02:32:28;22;17;12
42950;PMS7003;28592;51.064;17.192;2022-08-19T02:35:14;24;18;6
42950;PMS7003;28592;51.064;17.192;2022-08-19T02:38:00;40;23;10
42950;PMS7003;28592;51.064;17.192;2022-08-19T02:41:00;23;18;13
42950;PMS7003;28592;51.064;17.192;2022-08-19T02:43:48;23;17;9
42950;PMS7003;28592;51.064;17.192;2022-08-19T02:46:34;24;18;7
42950;PMS7003;28592;51.064;17.192;2022-08-19T02:49:20;18;12;9
42950;PMS7003;28592;51.064;17.192;2022-08-19T02:52:06;17;11;6
42950;PMS7003;28592;51.064;17.192;2022-08-19T02:54:51;38;21;11
42950;PMS7003;28592;51.064;17.192;2022-08-19T02:57:36;24;19;12
42950;PMS7003;28592;51.064;17.192;2022-08-19T03:00:23;18;12;8
42950;PMS7003;28592;51.064;17.192;2022-08-19T03:03:08;18;12;4
42950;PMS7003;28592;51.064;17.192;2022-08-19T03:08:51;24;18;11
42950;PMS7003;28592;51.064;17.192;2022-08-19T03:11:38;23;18;8
42950;PMS7003;28592;51.064;17.192;2022-08-19T03:14:23;22;17;6
42950;PMS7003;28592;51.064;17.192;2022-08-19T03:17:09;22;16;10
42950;PMS7003;28592;51.064;17.192;2022-08-19T03:19:54;22;16;11
42950;PMS7003;28592;51.064;17.192;2022-08-19T03:22:40;28;22;13
42950;PMS7003;28592;51.064;17.192;2022-08-19T03:25:25;40;23;9
42950;PMS7003;28592;51.064;17.192;2022-08-19T03:28:11;24;18;11
42950;PMS7003;28592;51.064;17.192;2022-08-19T03:31:02;18;12;8
42950;PMS7003;28592;51.064;17.192;2022-08-19T03:33:52;22;16;10
42950;PMS7003;28592;51.064;17.192;2022-08-19T03:36:39;26;20;10
42950;PMS7003;28592;51.064;17.192;2022-08-19T03:39:25;45;25;11
42950;PMS7003;28592;51.064;17.192;2022-08-19T03:42:11;20;14;9
42950;PMS7003;28592;51.064;17.192;2022-08-19T03:44:57;29;16;8
42950;PMS7003;28592;51.064;17.192;2022-08-19T03:47:42;23;17;11
42950;PMS7003;28592;51.064;17.192;2022-08-19T03:50:27;23;17;10
42950;PMS7003;28592;51.064;17.192;2022-08-19T03:53:13;19;13;8
42950;PMS7003;28592;51.064;17.192;2022-08-19T03:55:59;23;17;13
42950;PMS7003;28592;51.064;17.192;2022-08-19T03:58:45;22;16;12
42950;PMS7003;28592;51.064;17.192;2022-08-19T04:01:32;23;17;11
42950;PMS7003;28592;51.064;17.192;2022-08-19T04:04:18;24;18;12
42950;PMS7003;28592;51.064;17.192;2022-08-19T04:07:06;23;17;8
42950;PMS7003;28592;51.064;17.192;2022-08-19T04:09:53;22;16;8
42950;PMS7003;28592;51.064;17.192;2022-08-19T04:12:39;27;22;11
42950;PMS7003;28592;51.064;17.192;2022-08-19T04:15:24;21;16;7
42950;PMS7003;28592;51.064;17.192;2022-08-19T04:18:10;21;15;11
42950;PMS7003;28592;51.064;17.192;2022-08-19T04:20:55;28;22;12
42950;PMS7003;28592;51.064;17.192;2022-08-19T04:23:41;24;18;10
42950;PMS7003;28592;51.064;17.192;2022-08-19T04:26:27;31;19;12
42950;PMS7003;28592;51.064;17.192;2022-08-19T04:29:18;24;18;9
42950;PMS7003;28592;51.064;17.192;2022-08-19T04:32:10;27;21;11
42950;PMS7003;28592;51.064;17.192;2022-08-19T04:34:59;22;16;9
42950;PMS7003;28592;51.064;17.192;2022-08-19T04:37:44;32;26;12
42950;PMS7003;28592;51.064;17.192;2022-08-19T04:40:30;29;24;10
42950;PMS7003;28592;51.064;17.192;2022-08-19T04:43:26;23;17;13
42950;PMS7003;28592;51.064;17.192;2022-08-19T04:46:12;24;18;10
42950;PMS7003;28592;51.064;17.192;2022-08-19T04:48:59;45;27;16
42950;PMS7003;28592;51.064;17.192;2022-08-19T04:51:48;27;21;10
42950;PMS7003;28592;51.064;17.192;2022-08-19T04:54:38;30;12;7
42950;PMS7003;28592;51.064;17.192;2022-08-19T04:57:24;22;17;12
42950;PMS7003;28592;51.064;17.192;2022-08-19T05:00:10;25;19;10
42950;PMS7003;28592;51.064;17.192;2022-08-19T05:02:56;33;21;11
42950;PMS7003;28592;51.064;17.192;2022-08-19T05:05:42;46;24;16
42950;PMS7003;28592;51.064;17.192;2022-08-19T05:08:28;25;19;10
42950;PMS7003;28592;51.064;17.192;2022-08-19T05:11:19;36;19;11
42950;PMS7003;28592;51.064;17.192;2022-08-19T05:14:09;42;21;11
42950;PMS7003;28592;51.064;17.192;2022-08-19T05:16:57;26;21;10
42950;PMS7003;28592;51.064;17.192;2022-08-19T05:19:42;27;22;13
42950;PMS7003;28592;51.064;17.192;2022-08-19T05:22:39;40;27;13
42950;PMS7003;28592;51.064;17.192;2022-08-19T05:25:26;26;20;9
42950;PMS7003;28592;51.064;17.192;2022-08-19T05:28:11;46;29;15
42950;PMS7003;28592;51.064;17.192;2022-08-19T05:30:56;26;21;10
42950;PMS7003;28592;51.064;17.192;2022-08-19T05:33:42;40;28;7
42950;PMS7003;28592;51.064;17.192;2022-08-19T05:36:28;18;13;8
42950;PMS7003;28592;51.064;17.192;2022-08-19T05:39:20;25;19;7
42950;PMS7003;28592;51.064;17.192;2022-08-19T05:42:07;27;21;8
42950;PMS7003;28592;51.064;17.192;2022-08-19T05:44:54;25;19;14
42950;PMS7003;28592;51.064;17.192;2022-08-19T05:47:41;29;23;9
42950;PMS7003;28592;51.064;17.192;2022-08-19T05:50:29;23;17;11
42950;PMS7003;28592;51.064;17.192;2022-08-19T05:53:15;22;16;12
42950;PMS7003;28592;51.064;17.192;2022-08-19T05:58:57;24;18;7
42950;PMS7003;28592;51.064;17.192;2022-08-19T06:01:44;22;16;10
42950;PMS7003;28592;51.064;17.192;2022-08-19T06:04:30;22;16;9
42950;PMS7003;28592;51.064;17.192;2022-08-19T06:07:16;30;25;10
42950;PMS7003;28592;51.064;17.192;2022-08-19T06:10:05;31;25;11
42950;PMS7003;28592;51.064;17.192;2022-08-19T06:12:52;28;22;9
42950;PMS7003;28592;51.064;17.192;2022-08-19T06:15:38;32;26;12
42950;PMS7003;28592;51.064;17.192;2022-08-19T06:18:23;35;29;14
42950;PMS7003;28592;51.064;17.192;2022-08-19T06:21:08;26;20;10
42950;PMS7003;28592;51.064;17.192;2022-08-19T06:23:54;27;21;12
42950;PMS7003;28592;51.064;17.192;2022-08-19T06:26:43;21;15;8
42950;PMS7003;28592;51.064;17.192;2022-08-19T06:29:30;22;16;10
42950;PMS7003;28592;51.064;17.192;2022-08-19T06:32:17;39;23;16
42950;PMS7003;28592;51.064;17.192;2022-08-19T06:35:03;32;26;15
42950;PMS7003;28592;51.064;17.192;2022-08-19T06:37:50;27;22;11
42950;PMS7003;28592;51.064;17.192;2022-08-19T06:40:39;40;23;10
42950;PMS7003;28592;51.064;17.192;2022-08-19T06:43:25;24;18;12
42950;PMS7003;28592;51.064;17.192;2022-08-19T06:46:14;33;28;13
42950;PMS7003;28592;51.064;17.192;2022-08-19T06:49:02;26;20;11
42950;PMS7003;28592;51.064;17.192;2022-08-19T06:51:48;28;22;10
42950;PMS7003;28592;51.064;17.192;2022-08-19T06:54:34;37;20;14
42950;PMS7003;28592;51.064;17.192;2022-08-19T06:57:20;34;28;16
42950;PMS7003;28592;51.064;17.192;2022-08-19T07:00:06;39;16;9
42950;PMS7003;28592;51.064;17.192;2022-08-19T07:02:57;31;18;10
42950;PMS7003;28592;51.064;17.192;2022-08-19T07:05:44;35;22;14
42950;PMS7003;28592;51.064;17.192;2022-08-19T07:08:29;24;18;11
42950;PMS7003;28592;51.064;17.192;2022-08-19T07:11:16;27;21;13
42950;PMS7003;28592;51.064;17.192;2022-08-19T07:14:05;28;22;13
42950;PMS7003;28592;51.064;17.192;2022-08-19T07:16:51;31;25;18
42950;PMS7003;28592;51.064;17.192;2022-08-19T07:19:39;23;17;13
42950;PMS7003;28592;51.064;17.192;2022-08-19T07:22:26;32;26;17
42950;PMS7003;28592;51.064;17.192;2022-08-19T07:25:11;24;18;10
42950;PMS7003;28592;51.064;17.192;2022-08-19T07:27:57;24;18;14
42950;PMS7003;28592;51.064;17.192;2022-08-19T07:30:42;25;19;15
42950;PMS7003;28592;51.064;17.192;2022-08-19T07:33:28;21;15;8
42950;PMS7003;28592;51.064;17.192;2022-08-19T07:36:22;28;23;12
42950;PMS7003;28592;51.064;17.192;2022-08-19T07:39:17;171;93;29
42950;PMS7003;28592;51.064;17.192;2022-08-19T07:42:06;27;22;9
42950;PMS7003;28592;51.064;17.192;2022-08-19T07:44:58;24;18;11
42950;PMS7003;28592;51.064;17.192;2022-08-19T07:47:43;19;14;9
42950;PMS7003;28592;51.064;17.192;2022-08-19T07:50:30;20;14;9
42950;PMS7003;28592;51.064;17.192;2022-08-19T07:53:15;19;13;9
42950;PMS7003;28592;51.064;17.192;2022-08-19T07:56:00;25;20;10
42950;PMS7003;28592;51.064;17.192;2022-08-19T07:58:49;19;13;10
42950;PMS7003;28592;51.064;17.192;2022-08-19T08:01:36;26;20;9
42950;PMS7003;28592;51.064;17.192;2022-08-19T08:04:26;18;13;8
42950;PMS7003;28592;51.064;17.192;2022-08-19T08:07:24;20;14;11
42950;PMS7003;28592;51.064;17.192;2022-08-19T08:10:23;33;14;13
42950;PMS7003;28592;51.064;17.192;2022-08-19T08:13:11;36;16;10
42950;PMS7003;28592;51.064;17.192;2022-08-19T08:15:56;34;14;8
42950;PMS7003;28592;51.064;17.192;2022-08-19T08:18:42;24;18;12
42950;PMS7003;28592;51.064;17.192;2022-08-19T08:21:29;20;14;7
42950;PMS7003;28592;51.064;17.192;2022-08-19T08:24:14;21;15;8
42950;PMS7003;28592;51.064;17.192;2022-08-19T08:27:00;27;15;8
42950;PMS7003;28592;51.064;17.192;2022-08-19T08:29:48;27;21;9
42950;PMS7003;28592;51.064;17.192;2022-08-19T08:32:33;32;12;9
42950;PMS7003;28592;51.064;17.192;2022-08-19T08:35:19;28;22;9
42950;PMS7003;28592;51.064;17.192;2022-08-19T08:38:07;28;9;7
42950;PMS7003;28592;51.064;17.192;2022-08-19T08:40:53;15;9;5
42950;PMS7003;28592;51.064;17.192;2022-08-19T08:43:51;25;19;11
42950;PMS7003;28592;51.064;17.192;2022-08-19T08:46:39;27;9;7
42950;PMS7003;28592;51.064;17.192;2022-08-19T08:52:33;21;15;9
42950;PMS7003;28592;51.064;17.192;2022-08-19T08:55:23;18;12;7
42950;PMS7003;28592;51.064;17.192;2022-08-19T09:01:11;21;15;9
42950;PMS7003;28592;51.064;17.192;2022-08-19T09:04:00;19;13;8
42950;PMS7003;28592;51.064;17.192;2022-08-19T09:09:51;24;18;9
42950;PMS7003;28592;51.064;17.192;2022-08-19T09:15:40;20;15;7
42950;PMS7003;28592;51.064;17.192;2022-08-19T09:21:26;26;20;9
42950;PMS7003;28592;51.064;17.192;2022-08-19T09:24:12;15;9;6
42950;PMS7003;28592;51.064;17.192;2022-08-19T09:26:57;18;13;8
42950;PMS7003;28592;51.064;17.192;2022-08-19T09:29:43;26;20;7
42950;PMS7003;28592;51.064;17.192;2022-08-19T09:32:28;28;9;6
42950;PMS7003;28592;51.064;17.192;2022-08-19T09:35:14;20;14;10
42950;PMS7003;28592;51.064;17.192;2022-08-19T09:38:00;21;15;9
42950;PMS7003;28592;51.064;17.192;2022-08-19T09:40:48;39;16;6
42950;PMS7003;28592;51.064;17.192;2022-08-19T09:43:34;23;17;8
42950;PMS7003;28592;51.064;17.192;2022-08-19T09:46:21;23;17;11
42950;PMS7003;28592;51.064;17.192;2022-08-19T09:49:08;17;11;9
42950;PMS7003;28592;51.064;17.192;2022-08-19T09:51:54;19;14;9
42950;PMS7003;28592;51.064;17.192;2022-08-19T09:54:40;17;12;7
42950;PMS7003;28592;51.064;17.192;2022-08-19T09:57:26;16;10;5
42950;PMS7003;28592;51.064;17.192;2022-08-19T10:00:11;17;11;6
42950;PMS7003;28592;51.064;17.192;2022-08-19T10:02:57;14;8;5
42950;PMS7003;28592;51.064;17.192;2022-08-19T10:05:43;19;14;7
42950;PMS7003;28592;51.064;17.192;2022-08-19T10:08:35;19;13;7
42950;PMS7003;28592;51.064;17.192;2022-08-19T10:11:24;14;8;5
42950;PMS7003;28592;51.064;17.192;2022-08-19T10:14:10;18;12;9
42950;PMS7003;28592;51.064;17.192;2022-08-19T10:16:56;20;14;8
42950;PMS7003;28592;51.064;17.192;2022-08-19T10:19:41;18;13;8
42950;PMS7003;28592;51.064;17.192;2022-08-19T10:22:26;17;12;6
42950;PMS7003;28592;51.064;17.192;2022-08-19T10:25:12;16;10;4
42950;PMS7003;28592;51.064;17.192;2022-08-19T10:28:00;23;17;8
42950;PMS7003;28592;51.064;17.192;2022-08-19T10:30:45;27;21;12
42950;PMS7003;28592;51.064;17.192;2022-08-19T10:33:32;20;14;7
42950;PMS7003;28592;51.064;17.192;2022-08-19T10:36:19;17;11;7
42950;PMS7003;28592;51.064;17.192;2022-08-19T10:39:07;28;22;7
42950;PMS7003;28592;51.064;17.192;2022-08-19T10:41:54;18;12;6
42950;PMS7003;28592;51.064;17.192;2022-08-19T10:44:41;17;12;7
42950;PMS7003;28592;51.064;17.192;2022-08-19T10:47:29;19;13;4
42950;PMS7003;28592;51.064;17.192;2022-08-19T10:50:14;17;12;8
42950;PMS7003;28592;51.064;17.192;2022-08-19T10:53:11;16;11;6
42950;PMS7003;28592;51.064;17.192;2022-08-19T10:55:56;19;14;8
42950;PMS7003;28592;51.064;17.192;2022-08-19T10:58:53;17;12;7
42950;PMS7003;28592;51.064;17.192;2022-08-19T11:01:42;19;13;7
42950;PMS7003;28592;51.064;17.192;2022-08-19T11:04:28;15;10;6
42950;PMS7003;28592;51.064;17.192;2022-08-19T11:07:13;22;16;7
42950;PMS7003;28592;51.064;17.192;2022-08-19T11:09:58;18;12;7
42950;PMS7003;28592;51.064;17.192;2022-08-19T11:12:44;16;10;6
42950;PMS7003;28592;51.064;17.192;2022-08-19T11:15:31;18;13;6
42950;PMS7003;28592;51.064;17.192;2022-08-19T11:18:17;35;12;6
42950;PMS7003;28592;51.064;17.192;2022-08-19T11:24:07;17;12;7
42950;PMS7003;28592;51.064;17.192;2022-08-19T11:26:54;20;14;11
42950;PMS7003;28592;51.064;17.192;2022-08-19T11:29:46;17;12;9
42950;PMS7003;28592;51.064;17.192;2022-08-19T11:32:31;17;11;7
42950;PMS7003;28592;51.064;17.192;2022-08-19T11:35:18;15;9;5
42950;PMS7003;28592;51.064;17.192;2022-08-19T11:38:04;17;11;6
42950;PMS7003;28592;51.064;17.192;2022-08-19T11:40:57;18;12;7
42950;PMS7003;28592;51.064;17.192;2022-08-19T11:43:43;15;9;6
42950;PMS7003;28592;51.064;17.192;2022-08-19T11:46:29;17;12;9
42950;PMS7003;28592;51.064;17.192;2022-08-19T11:49:16;12;6;2
42950;PMS7003;28592;51.064;17.192;2022-08-19T11:52:05;10;4;2
42950;PMS7003;28592;51.064;17.192;2022-08-19T11:54:54;16;10;4
42950;PMS7003;28592;51.064;17.192;2022-08-19T11:57:40;12;6;3
42950;PMS7003;28592;51.064;17.192;2022-08-19T12:00:27;14;8;5
42950;PMS7003;28592;51.064;17.192;2022-08-19T12:03:13;13;7;4
42950;PMS7003;28592;51.064;17.192;2022-08-19T12:08:58;23;17;6
42950;PMS7003;28592;51.064;17.192;2022-08-19T12:11:46;12;6;4
42950;PMS7003;28592;51.064;17.192;2022-08-19T12:14:31;13;7;3
42950;PMS7003;28592;51.064;17.192;2022-08-19T12:17:17;12;6;3
42950;PMS7003;28592;51.064;17.192;2022-08-19T12:20:03;16;10;7
42950;PMS7003;28592;51.064;17.192;2022-08-19T12:22:52;14;8;5
42950;PMS7003;28592;51.064;17.192;2022-08-19T12:25:48;25;8;5
42950;PMS7003;28592;51.064;17.192;2022-08-19T12:28:37;14;8;5
42950;PMS7003;28592;51.064;17.192;2022-08-19T12:31:22;14;9;4
42950;PMS7003;28592;51.064;17.192;2022-08-19T12:34:08;27;9;5
42950;PMS7003;28592;51.064;17.192;2022-08-19T12:36:53;14;9;4
42950;PMS7003;28592;51.064;17.192;2022-08-19T12:39:40;21;15;7
42950;PMS7003;28592;51.064;17.192;2022-08-19T12:42:27;28;11;4
42950;PMS7003;28592;51.064;17.192;2022-08-19T12:45:14;17;11;5
42950;PMS7003;28592;51.064;17.192;2022-08-19T12:48:00;14;8;5
42950;PMS7003;28592;51.064;17.192;2022-08-19T12:50:45;15;9;2
42950;PMS7003;28592;51.064;17.192;2022-08-19T12:53:31;14;8;4
42950;PMS7003;28592;51.064;17.192;2022-08-19T12:56:16;20;14;4
42950;PMS7003;28592;51.064;17.192;2022-08-19T12:59:03;16;10;4
42950;PMS7003;28592;51.064;17.192;2022-08-19T13:01:50;14;8;4
42950;PMS7003;28592;51.064;17.192;2022-08-19T13:04:36;13;7;3
42950;PMS7003;28592;51.064;17.192;2022-08-19T13:07:25;12;6;3
42950;PMS7003;28592;51.064;17.192;2022-08-19T13:10:11;13;7;4
42950;PMS7003;28592;51.064;17.192;2022-08-19T13:13:06;17;12;6
42950;PMS7003;28592;51.064;17.192;2022-08-19T13:15:59;15;10;5
42950;PMS7003;28592;51.064;17.192;2022-08-19T13:18:47;14;8;4
42950;PMS7003;28592;51.064;17.192;2022-08-19T13:21:36;14;8;2
42950;PMS7003;28592;51.064;17.192;2022-08-19T13:24:21;13;8;3
42950;PMS7003;28592;51.064;17.192;2022-08-19T13:27:09;11;5;2
42950;PMS7003;28592;51.064;17.192;2022-08-19T13:29:54;15;9;6
42950;PMS7003;28592;51.064;17.192;2022-08-19T13:32:51;12;6;3
42950;PMS7003;28592;51.064;17.192;2022-08-19T13:35:49;26;6;4
42950;PMS7003;28592;51.064;17.192;2022-08-19T13:38:41;13;7;3
42950;PMS7003;28592;51.064;17.192;2022-08-19T13:41:26;16;10;4
42950;PMS7003;28592;51.064;17.192;2022-08-19T13:44:14;14;8;5
42950;PMS7003;28592;51.064;17.192;2022-08-19T13:47:03;13;7;3
42950;PMS7003;28592;51.064;17.192;2022-08-19T13:49:59;16;10;4
42950;PMS7003;28592;51.064;17.192;2022-08-19T13:52:47;11;5;3
42950;PMS7003;28592;51.064;17.192;2022-08-19T13:55:33;15;9;3
42950;PMS7003;28592;51.064;17.192;2022-08-19T13:58:19;24;18;4
42950;PMS7003;28592;51.064;17.192;2022-08-19T14:01:05;13;7;4
42950;PMS7003;28592;51.064;17.192;2022-08-19T14:03:51;12;7;3
42950;PMS7003;28592;51.064;17.192;2022-08-19T14:06:37;12;6;3
42950;PMS7003;28592;51.064;17.192;2022-08-19T14:09:22;15;9;5
42950;PMS7003;28592;51.064;17.192;2022-08-19T14:12:07;16;10;5
42950;PMS7003;28592;51.064;17.192;2022-08-19T14:14:52;18;12;7
42950;PMS7003;28592;51.064;17.192;2022-08-19T14:17:40;13;7;4
42950;PMS7003;28592;51.064;17.192;2022-08-19T14:20:27;10;4;1
42950;PMS7003;28592;51.064;17.192;2022-08-19T14:23:12;15;9;5
42950;PMS7003;28592;51.064;17.192;2022-08-19T14:28:51;12;6;3
42950;PMS7003;28592;51.064;17.192;2022-08-19T14:31:37;13;8;3
42950;PMS7003;28592;51.064;17.192;2022-08-19T14:34:28;16;10;7
42950;PMS7003;28592;51.064;17.192;2022-08-19T14:37:17;12;6;3
42950;PMS7003;28592;51.064;17.192;2022-08-19T14:40:03;16;10;3
42950;PMS7003;28592;51.064;17.192;2022-08-19T14:42:55;28;9;2
42950;PMS7003;28592;51.064;17.192;2022-08-19T14:45:44;17;11;6
42950;PMS7003;28592;51.064;17.192;2022-08-19T14:48:30;13;8;4
42950;PMS7003;28592;51.064;17.192;2022-08-19T14:51:15;12;7;3
42950;PMS7003;28592;51.064;17.192;2022-08-19T14:54:01;17;11;6
42950;PMS7003;28592;51.064;17.192;2022-08-19T14:56:46;13;7;5
42950;PMS7003;28592;51.064;17.192;2022-08-19T14:59:34;15;10;4
42950;PMS7003;28592;51.064;17.192;2022-08-19T15:02:19;14;9;3
42950;PMS7003;28592;51.064;17.192;2022-08-19T15:05:05;12;6;3
42950;PMS7003;28592;51.064;17.192;2022-08-19T15:07:51;16;10;2
42950;PMS7003;28592;51.064;17.192;2022-08-19T15:10:38;13;8;4
42950;PMS7003;28592;51.064;17.192;2022-08-19T15:13:24;14;8;3
42950;PMS7003;28592;51.064;17.192;2022-08-19T15:16:11;15;9;3
42950;PMS7003;28592;51.064;17.192;2022-08-19T15:18:59;18;12;4
42950;PMS7003;28592;51.064;17.192;2022-08-19T15:21:45;16;11;5
42950;PMS7003;28592;51.064;17.192;2022-08-19T15:24:33;20;14;4
42950;PMS7003;28592;51.064;17.192;2022-08-19T15:27:19;11;5;3
42950;PMS7003;28592;51.064;17.192;2022-08-19T15:30:06;15;9;5
42950;PMS7003;28592;51.064;17.192;2022-08-19T15:32:53;17;11;5
42950;PMS7003;28592;51.064;17.192;2022-08-19T15:35:39;17;11;5
42950;PMS7003;28592;51.064;17.192;2022-08-19T15:38:26;15;10;5
42950;PMS7003;28592;51.064;17.192;2022-08-19T15:41:16;15;9;4
42950;PMS7003;28592;51.064;17.192;2022-08-19T15:44:09;17;11;5
42950;PMS7003;28592;51.064;17.192;2022-08-19T15:47:02;14;8;4
42950;PMS7003;28592;51.064;17.192;2022-08-19T15:49:47;15;9;6
42950;PMS7003;28592;51.064;17.192;2022-08-19T15:52:32;17;11;5
42950;PMS7003;28592;51.064;17.192;2022-08-19T15:55:18;21;16;9
42950;PMS7003;28592;51.064;17.192;2022-08-19T15:58:07;22;16;9
42950;PMS7003;28592;51.064;17.192;2022-08-19T16:01:06;19;13;4
42950;PMS7003;28592;51.064;17.192;2022-08-19T16:04:03;39;19;8
42950;PMS7003;28592;51.064;17.192;2022-08-19T16:07:00;20;15;6
42950;PMS7003;28592;51.064;17.192;2022-08-19T16:09:47;34;14;8
42950;PMS7003;28592;51.064;17.192;2022-08-19T16:12:32;14;9;5
42950;PMS7003;28592;51.064;17.192;2022-08-19T16:15:18;17;11;7
42950;PMS7003;28592;51.064;17.192;2022-08-19T16:18:04;21;15;7
42950;PMS7003;28592;51.064;17.192;2022-08-19T16:20:50;18;12;8
42950;PMS7003;28592;51.064;17.192;2022-08-19T16:23:35;35;29;13
42950;PMS7003;28592;51.064;17.192;2022-08-19T16:26:20;22;16;9
42950;PMS7003;28592;51.064;17.192;2022-08-19T16:29:05;26;21;13
42950;PMS7003;28592;51.064;17.192;2022-08-19T16:31:54;18;13;9
42950;PMS7003;28592;51.064;17.192;2022-08-19T16:34:40;27;21;13
42950;PMS7003;28592;51.064;17.192;2022-08-19T16:37:26;33;27;17
42950;PMS7003;28592;51.064;17.192;2022-08-19T16:40:11;28;22;10
42950;PMS7003;28592;51.064;17.192;2022-08-19T16:42:59;34;28;12
42950;PMS7003;28592;51.064;17.192;2022-08-19T16:45:47;18;12;7
42950;PMS7003;28592;51.064;17.192;2022-08-19T16:48:36;26;20;9
42950;PMS7003;28592;51.064;17.192;2022-08-19T16:51:29;25;19;14
42950;PMS7003;28592;51.064;17.192;2022-08-19T16:54:16;25;20;12
42950;PMS7003;28592;51.064;17.192;2022-08-19T16:57:04;26;20;12
42950;PMS7003;28592;51.064;17.192;2022-08-19T16:59:50;35;29;15
42950;PMS7003;28592;51.064;17.192;2022-08-19T17:02:35;21;15;12
42950;PMS7003;28592;51.064;17.192;2022-08-19T17:05:22;29;24;13
42950;PMS7003;28592;51.064;17.192;2022-08-19T17:08:08;33;27;11
42950;PMS7003;28592;51.064;17.192;2022-08-19T17:10:57;28;22;14
42950;PMS7003;28592;51.064;17.192;2022-08-19T17:13:43;37;30;19
42950;PMS7003;28592;51.064;17.192;2022-08-19T17:16:31;33;27;12
42950;PMS7003;28592;51.064;17.192;2022-08-19T17:19:18;21;16;11
42950;PMS7003;28592;51.064;17.192;2022-08-19T17:22:03;47;28;22
42950;PMS7003;28592;51.064;17.192;2022-08-19T17:24:49;28;22;12
42950;PMS7003;28592;51.064;17.192;2022-08-19T17:27:35;33;27;13
42950;PMS7003;28592;51.064;17.192;2022-08-19T17:30:24;41;23;13
42950;PMS7003;28592;51.064;17.192;2022-08-19T17:33:09;27;21;13
42950;PMS7003;28592;51.064;17.192;2022-08-19T17:35:55;41;21;12
42950;PMS7003;28592;51.064;17.192;2022-08-19T17:38:40;36;18;11
42950;PMS7003;28592;51.064;17.192;2022-08-19T17:41:27;24;18;9
42950;PMS7003;28592;51.064;17.192;2022-08-19T17:44:14;39;17;9
42950;PMS7003;28592;51.064;17.192;2022-08-19T17:47:00;38;18;13
42950;PMS7003;28592;51.064;17.192;2022-08-19T17:49:47;36;30;17
42950;PMS7003;28592;51.064;17.192;2022-08-19T17:52:32;31;26;12
42950;PMS7003;28592;51.064;17.192;2022-08-19T17:55:19;24;18;8
42950;PMS7003;28592;51.064;17.192;2022-08-19T17:58:04;28;22;13
42950;PMS7003;28592;51.064;17.192;2022-08-19T18:00:51;28;22;14
42950;PMS7003;28592;51.064;17.192;2022-08-19T18:03:39;36;23;19
42950;PMS7003;28592;51.064;17.192;2022-08-19T18:06:26;25;20;11
42950;PMS7003;28592;51.064;17.192;2022-08-19T18:09:12;31;25;11
42950;PMS7003;28592;51.064;17.192;2022-08-19T18:11:58;44;27;12
42950;PMS7003;28592;51.064;17.192;2022-08-19T18:14:44;29;23;16
42950;PMS7003;28592;51.064;17.192;2022-08-19T18:17:30;32;26;17
42950;PMS7003;28592;51.064;17.192;2022-08-19T18:20:17;28;22;12
42950;PMS7003;28592;51.064;17.192;2022-08-19T18:23:03;52;34;17